sensor_id;sensor_type;location;lat;lon;timestamp;pressure;altitude;pressure_sealevel;temperature;humidity
51299;BME280;37382;45.192;9.790;2023-03-19T00:00:32;101536.09;;;10.58;100.00
51299;BME280;37382;45.192;9.790;2023-03-19T00:02:59;101528.47;;;10.54;100.00
51299;BME280;37382;45.192;9.790;2023-03-19T00:05:27;101531.44;;;10.67;100.00
51299;BME280;37382;45.192;9.790;2023-03-19T00:07:54;101522.00;;;10.78;100.00
51299;BME280;37382;45.192;9.790;2023-03-19T00:10:23;101515.53;;;10.47;100.00
51299;BME280;37382;45.192;9.790;2023-03-19T00:12:50;101521.22;;;10.38;100.00
51299;BME280;37382;45.192;9.790;2023-03-19T00:15:18;101518.78;;;10.43;100.00
51299;BME280;37382;45.192;9.790;2023-03-19T00:17:46;101507.81;;;10.28;100.00
51299;BME280;37382;45.192;9.790;2023-03-19T00:20:14;101502.34;;;10.36;100.00
51299;BME280;37382;45.192;9.790;2023-03-19T00:22:42;101509.75;;;10.03;100.00
51299;BME280;37382;45.192;9.790;2023-03-19T00:25:09;101507.34;;;10.16;100.00
51299;BME280;37382;45.192;9.790;2023-03-19T00:27:37;101512.78;;;10.16;100.00
51299;BME280;37382;45.192;9.790;2023-03-19T00:30:06;101508.56;;;10.05;100.00
51299;BME280;37382;45.192;9.790;2023-03-19T00:32:34;101519.22;;;10.15;100.00
51299;BME280;37382;45.192;9.790;2023-03-19T00:35:04;101518.88;;;10.18;100.00
51299;BME280;37382;45.192;9.790;2023-03-19T00:37:33;101516.13;;;10.35;100.00
51299;BME280;37382;45.192;9.790;2023-03-19T00:40:02;101515.63;;;10.23;100.00
51299;BME280;37382;45.192;9.790;2023-03-19T00:42:30;101513.13;;;10.13;100.00
51299;BME280;37382;45.192;9.790;2023-03-19T00:44:58;101521.47;;;10.03;100.00
51299;BME280;37382;45.192;9.790;2023-03-19T00:47:26;101518.50;;;10.29;100.00
51299;BME280;37382;45.192;9.790;2023-03-19T00:49:53;101519.03;;;10.33;100.00
51299;BME280;37382;45.192;9.790;2023-03-19T00:52:21;101522.41;;;10.35;100.00
51299;BME280;37382;45.192;9.790;2023-03-19T00:54:49;101519.88;;;10.33;100.00
51299;BME280;37382;45.192;9.790;2023-03-19T00:57:18;101510.06;;;10.08;100.00
51299;BME280;37382;45.192;9.790;2023-03-19T00:59:46;101509.91;;;10.09;100.00
51299;BME280;37382;45.192;9.790;2023-03-19T01:02:14;101507.28;;;10.24;100.00
51299;BME280;37382;45.192;9.790;2023-03-19T01:04:42;101521.38;;;9.88;100.00
51299;BME280;37382;45.192;9.790;2023-03-19T01:07:10;101522.22;;;9.89;100.00
51299;BME280;37382;45.192;9.790;2023-03-19T01:09:37;101518.66;;;9.88;100.00
51299;BME280;37382;45.192;9.790;2023-03-19T01:12:06;101515.25;;;9.86;100.00
51299;BME280;37382;45.192;9.790;2023-03-19T01:14:34;101509.63;;;9.96;100.00
51299;BME280;37382;45.192;9.790;2023-03-19T01:17:01;101511.78;;;10.09;100.00
51299;BME280;37382;45.192;9.790;2023-03-19T01:19:29;101521.13;;;10.14;100.00
51299;BME280;37382;45.192;9.790;2023-03-19T01:21:57;101523.78;;;10.31;100.00
51299;BME280;37382;45.192;9.790;2023-03-19T01:24:28;101527.38;;;10.23;100.00
51299;BME280;37382;45.192;9.790;2023-03-19T01:26:56;101524.28;;;9.87;100.00
51299;BME280;37382;45.192;9.790;2023-03-19T01:29:30;101537.56;;;9.49;100.00
51299;BME280;37382;45.192;9.790;2023-03-19T01:32:02;101531.97;;;9.34;100.00
51299;BME280;37382;45.192;9.790;2023-03-19T01:34:41;101535.00;;;8.89;100.00
51299;BME280;37382;45.192;9.790;2023-03-19T01:37:12;101523.13;;;9.07;100.00
51299;BME280;37382;45.192;9.790;2023-03-19T01:39:41;101513.63;;;8.86;100.00
51299;BME280;37382;45.192;9.790;2023-03-19T01:42:12;101517.00;;;8.80;100.00
51299;BME280;37382;45.192;9.790;2023-03-19T01:45:36;101522.59;;;8.79;100.00
51299;BME280;37382;45.192;9.790;2023-03-19T01:49:06;101519.91;;;9.12;100.00
51299;BME280;37382;45.192;9.790;2023-03-19T01:51:33;101516.03;;;9.31;100.00
51299;BME280;37382;45.192;9.790;2023-03-19T01:54:11;101506.50;;;9.35;100.00
51299;BME280;37382;45.192;9.790;2023-03-19T01:57:07;101506.84;;;9.40;100.00
51299;BME280;37382;45.192;9.790;2023-03-19T01:59:56;101503.59;;;9.61;100.00
51299;BME280;37382;45.192;9.790;2023-03-19T02:02:51;101496.94;;;9.64;100.00
51299;BME280;37382;45.192;9.790;2023-03-19T02:05:45;101499.56;;;9.49;100.00
51299;BME280;37382;45.192;9.790;2023-03-19T02:08:15;101495.16;;;9.15;100.00
51299;BME280;37382;45.192;9.790;2023-03-19T02:10:45;101495.31;;;8.88;100.00
51299;BME280;37382;45.192;9.790;2023-03-19T02:13:14;101503.63;;;8.87;100.00
51299;BME280;37382;45.192;9.790;2023-03-19T02:15:42;101507.31;;;8.61;100.00
51299;BME280;37382;45.192;9.790;2023-03-19T02:18:10;101505.41;;;8.45;100.00
51299;BME280;37382;45.192;9.790;2023-03-19T02:20:59;101504.91;;;8.07;100.00
51299;BME280;37382;45.192;9.790;2023-03-19T02:23:45;101501.44;;;7.97;100.00
51299;BME280;37382;45.192;9.790;2023-03-19T02:26:19;101499.66;;;7.79;100.00
51299;BME280;37382;45.192;9.790;2023-03-19T02:28:51;101490.09;;;7.67;100.00
51299;BME280;37382;45.192;9.790;2023-03-19T02:31:25;101494.88;;;7.73;100.00
51299;BME280;37382;45.192;9.790;2023-03-19T02:33:58;101488.47;;;7.74;100.00
51299;BME280;37382;45.192;9.790;2023-03-19T02:36:31;101489.09;;;7.68;100.00
51299;BME280;37382;45.192;9.790;2023-03-19T02:39:02;101484.66;;;7.59;100.00
51299;BME280;37382;45.192;9.790;2023-03-19T02:41:31;101480.16;;;7.68;100.00
51299;BME280;37382;45.192;9.790;2023-03-19T02:44:01;101476.06;;;7.63;100.00
51299;BME280;37382;45.192;9.790;2023-03-19T02:46:30;101474.03;;;7.65;100.00
51299;BME280;37382;45.192;9.790;2023-03-19T02:48:57;101479.72;;;7.54;100.00
51299;BME280;37382;45.192;9.790;2023-03-19T02:51:25;101481.59;;;7.54;100.00
51299;BME280;37382;45.192;9.790;2023-03-19T02:53:53;101476.56;;;7.67;100.00
51299;BME280;37382;45.192;9.790;2023-03-19T02:56:20;101481.63;;;7.62;100.00
51299;BME280;37382;45.192;9.790;2023-03-19T02:58:48;101479.84;;;7.79;100.00
51299;BME280;37382;45.192;9.790;2023-03-19T03:01:17;101481.19;;;7.75;100.00
51299;BME280;37382;45.192;9.790;2023-03-19T03:03:45;101488.94;;;7.70;100.00
51299;BME280;37382;45.192;9.790;2023-03-19T03:06:13;101487.31;;;7.77;100.00
51299;BME280;37382;45.192;9.790;2023-03-19T03:08:42;101486.09;;;7.79;100.00
51299;BME280;37382;45.192;9.790;2023-03-19T03:11:10;101484.03;;;7.73;100.00
51299;BME280;37382;45.192;9.790;2023-03-19T03:13:38;101489.78;;;7.70;100.00
51299;BME280;37382;45.192;9.790;2023-03-19T03:16:06;101492.97;;;7.92;100.00
51299;BME280;37382;45.192;9.790;2023-03-19T03:18:33;101488.47;;;7.74;100.00
51299;BME280;37382;45.192;9.790;2023-03-19T03:21:02;101496.06;;;7.71;100.00
51299;BME280;37382;45.192;9.790;2023-03-19T03:23:29;101493.28;;;7.62;100.00
51299;BME280;37382;45.192;9.790;2023-03-19T03:25:59;101496.28;;;7.25;100.00
51299;BME280;37382;45.192;9.790;2023-03-19T03:28:26;101510.66;;;7.07;100.00
51299;BME280;37382;45.192;9.790;2023-03-19T03:31:00;101515.28;;;6.97;100.00
51299;BME280;37382;45.192;9.790;2023-03-19T03:33:28;101516.47;;;6.76;100.00
51299;BME280;37382;45.192;9.790;2023-03-19T03:35:56;101519.75;;;6.52;100.00
51299;BME280;37382;45.192;9.790;2023-03-19T03:38:25;101529.56;;;6.53;100.00
51299;BME280;37382;45.192;9.790;2023-03-19T03:40:53;101525.78;;;6.46;100.00
51299;BME280;37382;45.192;9.790;2023-03-19T03:43:25;101526.72;;;6.73;100.00
51299;BME280;37382;45.192;9.790;2023-03-19T03:45:53;101528.19;;;6.67;100.00
51299;BME280;37382;45.192;9.790;2023-03-19T03:48:21;101535.91;;;6.62;100.00
51299;BME280;37382;45.192;9.790;2023-03-19T03:50:49;101528.41;;;6.56;100.00
51299;BME280;37382;45.192;9.790;2023-03-19T03:53:22;101534.94;;;6.35;100.00
51299;BME280;37382;45.192;9.790;2023-03-19T03:55:49;101534.41;;;6.50;100.00
51299;BME280;37382;45.192;9.790;2023-03-19T03:58:20;101536.50;;;6.56;100.00
51299;BME280;37382;45.192;9.790;2023-03-19T04:00:48;101542.53;;;6.50;100.00
51299;BME280;37382;45.192;9.790;2023-03-19T04:03:16;101545.22;;;6.50;100.00
51299;BME280;37382;45.192;9.790;2023-03-19T04:05:44;101541.75;;;6.57;100.00
51299;BME280;37382;45.192;9.790;2023-03-19T04:08:12;101540.69;;;6.68;100.00
51299;BME280;37382;45.192;9.790;2023-03-19T04:10:41;101534.69;;;6.56;100.00
51299;BME280;37382;45.192;9.790;2023-03-19T04:13:10;101531.63;;;6.41;100.00
51299;BME280;37382;45.192;9.790;2023-03-19T04:15:41;101533.09;;;5.98;100.00
51299;BME280;37382;45.192;9.790;2023-03-19T04:18:10;101538.31;;;6.10;100.00
51299;BME280;37382;45.192;9.790;2023-03-19T04:20:38;101543.47;;;6.03;100.00
51299;BME280;37382;45.192;9.790;2023-03-19T04:23:07;101545.53;;;6.19;100.00
51299;BME280;37382;45.192;9.790;2023-03-19T04:25:38;101550.13;;;6.09;100.00
51299;BME280;37382;45.192;9.790;2023-03-19T04:28:05;101553.03;;;6.25;100.00
51299;BME280;37382;45.192;9.790;2023-03-19T04:30:33;101543.50;;;6.76;100.00
51299;BME280;37382;45.192;9.790;2023-03-19T04:33:02;101550.41;;;7.07;100.00
51299;BME280;37382;45.192;9.790;2023-03-19T04:35:31;101554.19;;;6.96;100.00
51299;BME280;37382;45.192;9.790;2023-03-19T04:37:58;101550.25;;;7.08;100.00
51299;BME280;37382;45.192;9.790;2023-03-19T04:40:26;101554.63;;;7.27;100.00
51299;BME280;37382;45.192;9.790;2023-03-19T04:42:54;101557.25;;;7.37;100.00
51299;BME280;37382;45.192;9.790;2023-03-19T04:45:33;101558.06;;;7.11;100.00
51299;BME280;37382;45.192;9.790;2023-03-19T04:48:00;101557.19;;;7.11;100.00
51299;BME280;37382;45.192;9.790;2023-03-19T04:50:30;101551.25;;;7.25;100.00
51299;BME280;37382;45.192;9.790;2023-03-19T04:52:58;101548.69;;;7.06;100.00
51299;BME280;37382;45.192;9.790;2023-03-19T04:55:26;101554.25;;;6.86;100.00
51299;BME280;37382;45.192;9.790;2023-03-19T04:58:02;101547.63;;;6.53;100.00
51299;BME280;37382;45.192;9.790;2023-03-19T05:00:33;101549.50;;;6.52;100.00
51299;BME280;37382;45.192;9.790;2023-03-19T05:03:01;101545.50;;;6.56;100.00
51299;BME280;37382;45.192;9.790;2023-03-19T05:05:30;101538.97;;;7.13;100.00
51299;BME280;37382;45.192;9.790;2023-03-19T05:08:00;101553.00;;;6.99;100.00
51299;BME280;37382;45.192;9.790;2023-03-19T05:10:28;101555.09;;;6.69;100.00
51299;BME280;37382;45.192;9.790;2023-03-19T05:12:56;101546.41;;;6.47;100.00
51299;BME280;37382;45.192;9.790;2023-03-19T05:15:24;101554.34;;;6.21;100.00
51299;BME280;37382;45.192;9.790;2023-03-19T05:17:59;101541.13;;;6.18;100.00
51299;BME280;37382;45.192;9.790;2023-03-19T05:20:37;101533.56;;;5.84;100.00
51299;BME280;37382;45.192;9.790;2023-03-19T05:23:15;101546.06;;;5.75;100.00
51299;BME280;37382;45.192;9.790;2023-03-19T05:25:57;101562.31;;;5.65;100.00
51299;BME280;37382;45.192;9.790;2023-03-19T05:28:45;101552.22;;;5.67;100.00
51299;BME280;37382;45.192;9.790;2023-03-19T05:31:16;101551.31;;;5.86;100.00
51299;BME280;37382;45.192;9.790;2023-03-19T05:33:48;101562.13;;;5.86;100.00
51299;BME280;37382;45.192;9.790;2023-03-19T05:36:16;101569.75;;;6.11;100.00
51299;BME280;37382;45.192;9.790;2023-03-19T05:39:00;101560.69;;;6.02;100.00
51299;BME280;37382;45.192;9.790;2023-03-19T05:41:33;101563.06;;;6.43;100.00
51299;BME280;37382;45.192;9.790;2023-03-19T05:44:04;101567.56;;;6.98;100.00
51299;BME280;37382;45.192;9.790;2023-03-19T05:46:51;101566.00;;;7.13;100.00
51299;BME280;37382;45.192;9.790;2023-03-19T05:49:22;101570.34;;;7.24;100.00
51299;BME280;37382;45.192;9.790;2023-03-19T05:51:51;101563.16;;;7.33;100.00
51299;BME280;37382;45.192;9.790;2023-03-19T05:54:19;101570.97;;;7.18;100.00
51299;BME280;37382;45.192;9.790;2023-03-19T05:56:56;101568.72;;;7.31;100.00
51299;BME280;37382;45.192;9.790;2023-03-19T05:59:36;101578.75;;;7.39;100.00
51299;BME280;37382;45.192;9.790;2023-03-19T06:02:20;101584.88;;;7.23;100.00
51299;BME280;37382;45.192;9.790;2023-03-19T06:04:52;101593.59;;;7.17;100.00
51299;BME280;37382;45.192;9.790;2023-03-19T06:07:25;101593.59;;;6.99;100.00
51299;BME280;37382;45.192;9.790;2023-03-19T06:09:53;101601.53;;;6.54;100.00
51299;BME280;37382;45.192;9.790;2023-03-19T06:12:20;101598.13;;;6.25;100.00
51299;BME280;37382;45.192;9.790;2023-03-19T06:15:24;101602.56;;;6.16;100.00
51299;BME280;37382;45.192;9.790;2023-03-19T06:18:06;101605.91;;;6.37;100.00
51299;BME280;37382;45.192;9.790;2023-03-19T06:20:34;101605.66;;;6.21;100.00
51299;BME280;37382;45.192;9.790;2023-03-19T06:23:03;101601.72;;;6.15;100.00
51299;BME280;37382;45.192;9.790;2023-03-19T06:25:30;101612.69;;;6.04;100.00
51299;BME280;37382;45.192;9.790;2023-03-19T06:27:58;101609.56;;;5.89;100.00
51299;BME280;37382;45.192;9.790;2023-03-19T06:30:33;101615.47;;;5.65;100.00
51299;BME280;37382;45.192;9.790;2023-03-19T06:33:04;101616.72;;;5.80;100.00
51299;BME280;37382;45.192;9.790;2023-03-19T06:35:32;101618.63;;;6.17;100.00
51299;BME280;37382;45.192;9.790;2023-03-19T06:38:00;101610.16;;;6.68;100.00
51299;BME280;37382;45.192;9.790;2023-03-19T06:40:28;101614.41;;;7.16;100.00
51299;BME280;37382;45.192;9.790;2023-03-19T06:42:55;101612.94;;;7.40;100.00
51299;BME280;37382;45.192;9.790;2023-03-19T06:45:23;101613.72;;;7.76;100.00
51299;BME280;37382;45.192;9.790;2023-03-19T06:47:51;101624.06;;;7.99;100.00
51299;BME280;37382;45.192;9.790;2023-03-19T06:50:19;101619.03;;;8.04;100.00
51299;BME280;37382;45.192;9.790;2023-03-19T06:52:47;101619.34;;;8.01;100.00
51299;BME280;37382;45.192;9.790;2023-03-19T06:55:15;101616.97;;;8.32;100.00
51299;BME280;37382;45.192;9.790;2023-03-19T06:57:47;101628.88;;;8.40;100.00
51299;BME280;37382;45.192;9.790;2023-03-19T07:00:15;101629.31;;;8.53;100.00
51299;BME280;37382;45.192;9.790;2023-03-19T07:02:44;101625.53;;;8.80;100.00
51299;BME280;37382;45.192;9.790;2023-03-19T07:05:11;101628.94;;;8.82;100.00
51299;BME280;37382;45.192;9.790;2023-03-19T07:07:39;101625.94;;;9.02;100.00
51299;BME280;37382;45.192;9.790;2023-03-19T07:10:08;101625.97;;;9.18;100.00
51299;BME280;37382;45.192;9.790;2023-03-19T07:12:35;101635.75;;;9.03;100.00
51299;BME280;37382;45.192;9.790;2023-03-19T07:15:03;101630.75;;;9.24;100.00
51299;BME280;37382;45.192;9.790;2023-03-19T07:17:31;101641.97;;;9.46;100.00
51299;BME280;37382;45.192;9.790;2023-03-19T07:19:59;101646.56;;;9.54;100.00
51299;BME280;37382;45.192;9.790;2023-03-19T07:22:27;101650.25;;;9.36;100.00
51299;BME280;37382;45.192;9.790;2023-03-19T07:24:54;101651.47;;;9.50;100.00
51299;BME280;37382;45.192;9.790;2023-03-19T07:27:22;101647.38;;;9.95;100.00
51299;BME280;37382;45.192;9.790;2023-03-19T07:29:49;101651.09;;;10.19;100.00
51299;BME280;37382;45.192;9.790;2023-03-19T07:32:17;101653.47;;;10.39;100.00
51299;BME280;37382;45.192;9.790;2023-03-19T07:34:44;101664.31;;;10.30;100.00
51299;BME280;37382;45.192;9.790;2023-03-19T07:37:11;101659.41;;;10.26;100.00
51299;BME280;37382;45.192;9.790;2023-03-19T07:39:39;101664.53;;;10.21;100.00
51299;BME280;37382;45.192;9.790;2023-03-19T07:42:07;101659.59;;;10.16;100.00
51299;BME280;37382;45.192;9.790;2023-03-19T07:44:39;101665.03;;;10.32;100.00
51299;BME280;37382;45.192;9.790;2023-03-19T07:47:07;101654.44;;;10.46;100.00
51299;BME280;37382;45.192;9.790;2023-03-19T07:49:54;101656.16;;;10.55;100.00
51299;BME280;37382;45.192;9.790;2023-03-19T07:52:22;101657.66;;;10.58;100.00
51299;BME280;37382;45.192;9.790;2023-03-19T07:54:50;101660.59;;;10.88;100.00
51299;BME280;37382;45.192;9.790;2023-03-19T07:57:18;101661.13;;;10.83;100.00
51299;BME280;37382;45.192;9.790;2023-03-19T07:59:47;101659.06;;;10.93;100.00
51299;BME280;37382;45.192;9.790;2023-03-19T08:02:15;101657.72;;;10.89;100.00
51299;BME280;37382;45.192;9.790;2023-03-19T08:04:43;101658.66;;;11.04;100.00
51299;BME280;37382;45.192;9.790;2023-03-19T08:07:10;101660.75;;;11.26;100.00
51299;BME280;37382;45.192;9.790;2023-03-19T08:09:39;101660.31;;;11.60;100.00
51299;BME280;37382;45.192;9.790;2023-03-19T08:12:07;101658.44;;;11.84;100.00
51299;BME280;37382;45.192;9.790;2023-03-19T08:14:36;101652.88;;;11.77;100.00
51299;BME280;37382;45.192;9.790;2023-03-19T08:17:04;101653.69;;;11.39;100.00
51299;BME280;37382;45.192;9.790;2023-03-19T08:19:31;101667.13;;;11.41;100.00
51299;BME280;37382;45.192;9.790;2023-03-19T08:22:00;101667.41;;;11.46;100.00
51299;BME280;37382;45.192;9.790;2023-03-19T08:24:27;101665.78;;;11.83;100.00
51299;BME280;37382;45.192;9.790;2023-03-19T08:26:54;101669.09;;;12.17;100.00
51299;BME280;37382;45.192;9.790;2023-03-19T08:29:22;101670.41;;;12.06;100.00
51299;BME280;37382;45.192;9.790;2023-03-19T08:31:53;101666.25;;;12.10;100.00
51299;BME280;37382;45.192;9.790;2023-03-19T08:34:22;101661.47;;;12.27;100.00
51299;BME280;37382;45.192;9.790;2023-03-19T08:36:50;101665.56;;;12.61;100.00
51299;BME280;37382;45.192;9.790;2023-03-19T08:39:17;101669.09;;;12.46;100.00
51299;BME280;37382;45.192;9.790;2023-03-19T08:41:45;101664.78;;;12.67;100.00
51299;BME280;37382;45.192;9.790;2023-03-19T08:44:12;101666.28;;;12.85;100.00
51299;BME280;37382;45.192;9.790;2023-03-19T08:46:40;101673.81;;;12.97;100.00
51299;BME280;37382;45.192;9.790;2023-03-19T08:49:08;101668.25;;;12.91;100.00
51299;BME280;37382;45.192;9.790;2023-03-19T08:51:36;101670.63;;;13.15;100.00
51299;BME280;37382;45.192;9.790;2023-03-19T08:54:04;101674.56;;;13.43;100.00
51299;BME280;37382;45.192;9.790;2023-03-19T08:56:32;101668.00;;;13.59;100.00
51299;BME280;37382;45.192;9.790;2023-03-19T08:59:00;101671.38;;;13.39;100.00
51299;BME280;37382;45.192;9.790;2023-03-19T09:01:27;101669.03;;;13.79;100.00
51299;BME280;37382;45.192;9.790;2023-03-19T09:03:55;101674.28;;;13.81;100.00
51299;BME280;37382;45.192;9.790;2023-03-19T09:06:23;101675.28;;;13.95;100.00
51299;BME280;37382;45.192;9.790;2023-03-19T09:08:51;101672.50;;;14.16;100.00
51299;BME280;37382;45.192;9.790;2023-03-19T09:11:18;101679.66;;;13.67;100.00
51299;BME280;37382;45.192;9.790;2023-03-19T09:13:46;101677.03;;;14.02;100.00
51299;BME280;37382;45.192;9.790;2023-03-19T09:16:14;101672.84;;;14.35;100.00
51299;BME280;37382;45.192;9.790;2023-03-19T09:18:43;101680.91;;;14.71;100.00
51299;BME280;37382;45.192;9.790;2023-03-19T09:21:10;101676.97;;;14.87;100.00
51299;BME280;37382;45.192;9.790;2023-03-19T09:23:38;101687.03;;;14.45;100.00
51299;BME280;37382;45.192;9.790;2023-03-19T09:26:07;101689.75;;;14.73;100.00
51299;BME280;37382;45.192;9.790;2023-03-19T09:28:34;101692.19;;;14.62;100.00
51299;BME280;37382;45.192;9.790;2023-03-19T09:31:02;101692.59;;;14.02;100.00
51299;BME280;37382;45.192;9.790;2023-03-19T09:33:34;101693.41;;;14.24;100.00
51299;BME280;37382;45.192;9.790;2023-03-19T09:36:01;101681.56;;;14.45;100.00
51299;BME280;37382;45.192;9.790;2023-03-19T09:38:29;101681.09;;;14.41;100.00
51299;BME280;37382;45.192;9.790;2023-03-19T09:41:09;101673.03;;;14.62;100.00
51299;BME280;37382;45.192;9.790;2023-03-19T09:43:43;101667.81;;;14.38;100.00
51299;BME280;37382;45.192;9.790;2023-03-19T09:46:23;101667.44;;;14.76;100.00
51299;BME280;37382;45.192;9.790;2023-03-19T09:48:56;101666.47;;;14.98;100.00
51299;BME280;37382;45.192;9.790;2023-03-19T09:51:58;101656.28;;;14.78;100.00
51299;BME280;37382;45.192;9.790;2023-03-19T09:54:36;101663.41;;;15.21;100.00
51299;BME280;37382;45.192;9.790;2023-03-19T09:57:07;101657.91;;;15.14;100.00
51299;BME280;37382;45.192;9.790;2023-03-19T09:59:36;101661.66;;;15.06;100.00
51299;BME280;37382;45.192;9.790;2023-03-19T10:02:28;101663.31;;;15.62;100.00
51299;BME280;37382;45.192;9.790;2023-03-19T10:10:30;101665.88;;;15.91;100.00
51299;BME280;37382;45.192;9.790;2023-03-19T10:13:34;101651.75;;;15.87;100.00
51299;BME280;37382;45.192;9.790;2023-03-19T10:16:12;101658.94;;;15.13;100.00
51299;BME280;37382;45.192;9.790;2023-03-19T10:18:49;101653.84;;;15.78;100.00
51299;BME280;37382;45.192;9.790;2023-03-19T10:21:28;101655.53;;;15.79;100.00
51299;BME280;37382;45.192;9.790;2023-03-19T10:26:49;101650.69;;;16.22;100.00
51299;BME280;37382;45.192;9.790;2023-03-19T10:29:23;101648.13;;;15.80;100.00
51299;BME280;37382;45.192;9.790;2023-03-19T10:32:19;101646.88;;;16.09;100.00
51299;BME280;37382;45.192;9.790;2023-03-19T10:34:48;101638.84;;;16.21;100.00
51299;BME280;37382;45.192;9.790;2023-03-19T10:37:25;101641.50;;;15.41;100.00
51299;BME280;37382;45.192;9.790;2023-03-19T10:39:58;101642.53;;;15.26;100.00
51299;BME280;37382;45.192;9.790;2023-03-19T10:42:44;101645.78;;;15.50;100.00
51299;BME280;37382;45.192;9.790;2023-03-19T10:47:59;101637.56;;;16.30;100.00
51299;BME280;37382;45.192;9.790;2023-03-19T10:50:31;101626.84;;;16.81;100.00
51299;BME280;37382;45.192;9.790;2023-03-19T10:53:54;101632.84;;;16.58;100.00
51299;BME280;37382;45.192;9.790;2023-03-19T10:56:28;101634.59;;;15.65;100.00
51299;BME280;37382;45.192;9.790;2023-03-19T10:59:02;101633.97;;;15.56;100.00
51299;BME280;37382;45.192;9.790;2023-03-19T11:01:34;101630.34;;;15.42;100.00
51299;BME280;37382;45.192;9.790;2023-03-19T11:04:12;101630.38;;;15.49;100.00
51299;BME280;37382;45.192;9.790;2023-03-19T11:06:40;101622.34;;;15.47;100.00
51299;BME280;37382;45.192;9.790;2023-03-19T11:11:48;101611.81;;;16.25;100.00
51299;BME280;37382;45.192;9.790;2023-03-19T11:14:40;101614.34;;;16.26;100.00
51299;BME280;37382;45.192;9.790;2023-03-19T11:19:40;101611.81;;;16.18;100.00
51299;BME280;37382;45.192;9.790;2023-03-19T11:24:38;101607.91;;;16.66;100.00
51299;BME280;37382;45.192;9.790;2023-03-19T11:27:08;101595.81;;;17.19;100.00
51299;BME280;37382;45.192;9.790;2023-03-19T11:29:43;101599.63;;;17.18;100.00
51299;BME280;37382;45.192;9.790;2023-03-19T11:35:02;101581.13;;;17.32;100.00
51299;BME280;37382;45.192;9.790;2023-03-19T11:40:20;101582.97;;;17.95;100.00
51299;BME280;37382;45.192;9.790;2023-03-19T11:45:52;101575.81;;;18.31;100.00
51299;BME280;37382;45.192;9.790;2023-03-19T11:48:37;101570.00;;;17.77;100.00
51299;BME280;37382;45.192;9.790;2023-03-19T11:54:15;101562.34;;;17.54;100.00
51299;BME280;37382;45.192;9.790;2023-03-19T11:56:53;101577.53;;;16.41;100.00
51299;BME280;37382;45.192;9.790;2023-03-19T12:05:22;101555.16;;;18.40;100.00
51299;BME280;37382;45.192;9.790;2023-03-19T12:13:42;101558.06;;;18.27;100.00
51299;BME280;37382;45.192;9.790;2023-03-19T12:16:35;101550.09;;;18.00;100.00
51299;BME280;37382;45.192;9.790;2023-03-19T12:19:27;101547.72;;;18.04;99.08
51299;BME280;37382;45.192;9.790;2023-03-19T12:22:12;101539.22;;;18.42;96.39
51299;BME280;37382;45.192;9.790;2023-03-19T12:27:43;101540.97;;;18.74;94.16
51299;BME280;37382;45.192;9.790;2023-03-19T12:30:46;101531.66;;;18.56;91.61
51299;BME280;37382;45.192;9.790;2023-03-19T12:36:08;101519.03;;;18.79;91.30
51299;BME280;37382;45.192;9.790;2023-03-19T12:38:42;101525.03;;;18.45;93.19
51299;BME280;37382;45.192;9.790;2023-03-19T12:41:22;101517.88;;;18.56;90.46
51299;BME280;37382;45.192;9.790;2023-03-19T12:43:54;101523.19;;;18.21;92.26
51299;BME280;37382;45.192;9.790;2023-03-19T12:46:27;101519.13;;;18.42;90.84
51299;BME280;37382;45.192;9.790;2023-03-19T12:49:05;101519.91;;;17.68;91.18
51299;BME280;37382;45.192;9.790;2023-03-19T12:51:37;101514.91;;;18.21;89.23
51299;BME280;37382;45.192;9.790;2023-03-19T12:54:26;101516.84;;;18.69;88.83
51299;BME280;37382;45.192;9.790;2023-03-19T13:02:27;101510.66;;;18.06;89.40
51299;BME280;37382;45.192;9.790;2023-03-19T13:05:05;101500.69;;;18.05;90.86
51299;BME280;37382;45.192;9.790;2023-03-19T13:10:24;101500.38;;;17.51;95.65
51299;BME280;37382;45.192;9.790;2023-03-19T13:12:53;101497.81;;;17.31;98.04
51299;BME280;37382;45.192;9.790;2023-03-19T13:15:35;101499.31;;;16.57;100.00
51299;BME280;37382;45.192;9.790;2023-03-19T13:23:24;101494.00;;;17.00;100.00
51299;BME280;37382;45.192;9.790;2023-03-19T13:25:57;101484.91;;;17.25;100.00
51299;BME280;37382;45.192;9.790;2023-03-19T13:29:21;101487.56;;;17.38;98.57
51299;BME280;37382;45.192;9.790;2023-03-19T13:31:40;101481.75;;;17.72;98.49
51299;BME280;37382;45.192;9.790;2023-03-19T13:36:46;101474.31;;;17.54;96.73
51299;BME280;37382;45.192;9.790;2023-03-19T13:39:17;101484.53;;;17.21;98.58
51299;BME280;37382;45.192;9.790;2023-03-19T13:41:46;101480.78;;;17.85;97.54
51299;BME280;37382;45.192;9.790;2023-03-19T13:44:42;101472.59;;;17.34;99.17
51299;BME280;37382;45.192;9.790;2023-03-19T13:52:51;101476.50;;;17.20;95.93
51299;BME280;37382;45.192;9.790;2023-03-19T14:05:54;101471.59;;;16.65;100.00
51299;BME280;37382;45.192;9.790;2023-03-19T14:08:28;101473.91;;;16.23;100.00
51299;BME280;37382;45.192;9.790;2023-03-19T14:11:00;101474.63;;;15.98;100.00
51299;BME280;37382;45.192;9.790;2023-03-19T14:13:37;101475.38;;;16.25;100.00
51299;BME280;37382;45.192;9.790;2023-03-19T14:16:21;101465.59;;;15.77;100.00
51299;BME280;37382;45.192;9.790;2023-03-19T14:18:55;101461.56;;;15.93;100.00
51299;BME280;37382;45.192;9.790;2023-03-19T14:21:41;101463.47;;;15.73;100.00
51299;BME280;37382;45.192;9.790;2023-03-19T14:27:27;101463.91;;;15.76;100.00
51299;BME280;37382;45.192;9.790;2023-03-19T14:30:07;101460.38;;;16.21;100.00
51299;BME280;37382;45.192;9.790;2023-03-19T14:32:38;101464.47;;;16.05;100.00
51299;BME280;37382;45.192;9.790;2023-03-19T14:35:15;101463.28;;;15.81;100.00